Time;durP1;ratioP1;P1;durP2;ratioP2;P2;SDS_P1;SDS_P2;PMS_P1;PMS_P2;Temp;Humidity;BMP_temperature;BMP_pressure;BME280_temperature;BME280_humidity;BME280_pressure;Samples;Min_cycle;Max_cycle;Signal;HPM_P1;HPM_P2
2023/12/08 00:01:34;;;;;;;2.05;1.30;;;;;;;;;;5042318;28;20391;-88
2023/12/08 00:03:59;;;;;;;2.22;1.13;;;;;;;;;;5039320;28;20474;-87
2023/12/08 00:06:25;;;;;;;2.05;1.25;;;;;;;;;;5039010;28;20037;-87
2023/12/08 00:08:50;;;;;;;1.52;1.00;;;;;;;;;;5036134;28;20124;-87
2023/12/08 00:11:15;;;;;;;2.47;1.40;;;;;;;;;;5036317;28;20033;-87
2023/12/08 00:13:41;;;;;;;2.33;1.40;;;;;;;;;;5036157;28;20048;-87
2023/12/08 00:16:08;;;;;;;1.70;1.08;;;;;;;;;;5040926;28;20053;-87
2023/12/08 00:18:34;;;;;;;3.60;1.73;;;;;;;;;;5040462;28;20636;-87
2023/12/08 00:20:59;;;;;;;2.15;1.38;;;;;;;;;;5039713;28;20033;-87
2023/12/08 00:23:25;;;;;;;2.80;1.60;;;;;;;;;;5040492;28;20021;-88
2023/12/08 00:25:50;;;;;;;2.03;1.30;;;;;;;;;;5039454;28;20034;-88
2023/12/08 00:28:16;;;;;;;2.83;1.55;;;;;;;;;;5029998;28;20036;-87
2023/12/08 00:30:41;;;;;;;2.85;1.13;;;;;;;;;;5035126;28;20525;-87
2023/12/08 00:33:07;;;;;;;2.60;1.42;;;;;;;;;;5034138;28;20040;-86
2023/12/08 00:35:32;;;;;;;2.03;1.17;;;;;;;;;;5041125;28;20029;-87
2023/12/08 00:37:58;;;;;;;2.05;1.38;;;;;;;;;;5033952;28;20112;-88
2023/12/08 00:40:23;;;;;;;2.15;1.42;;;;;;;;;;5038609;28;20029;-87
2023/12/08 00:42:49;;;;;;;2.40;1.25;;;;;;;;;;5041168;28;20119;-87
2023/12/08 00:45:15;;;;;;;2.92;1.40;;;;;;;;;;5040758;28;20037;-88
2023/12/08 00:47:40;;;;;;;2.92;1.15;;;;;;;;;;5040447;28;20037;-88
2023/12/08 00:50:07;;;;;;;2.55;1.27;;;;;;;;;;5029065;28;20041;-87
2023/12/08 00:52:33;;;;;;;2.05;1.23;;;;;;;;;;5039903;28;20064;-87
2023/12/08 00:54:58;;;;;;;2.67;1.33;;;;;;;;;;5038296;28;20033;-88
2023/12/08 00:57:24;;;;;;;1.63;1.05;;;;;;;;;;5043483;28;20067;-88
2023/12/08 00:59:49;;;;;;;2.22;1.05;;;;;;;;;;5035614;28;20041;-87
2023/12/08 01:02:14;;;;;;;2.45;1.27;;;;;;;;;;5040193;28;20029;-88
2023/12/08 01:04:40;;;;;;;2.78;1.17;;;;;;;;;;5041210;28;20088;-88
2023/12/08 01:07:05;;;;;;;3.38;1.30;;;;;;;;;;5032501;28;20089;-87
2023/12/08 01:09:31;;;;;;;2.03;1.20;;;;;;;;;;5032722;28;20170;-87
2023/12/08 01:11:56;;;;;;;3.00;1.17;;;;;;;;;;5037617;28;20029;-88
2023/12/08 01:14:22;;;;;;;1.95;1.13;;;;;;;;;;5038625;28;20034;-87
2023/12/08 01:16:47;;;;;;;1.98;1.02;;;;;;;;;;5042842;28;20585;-86
2023/12/08 01:19:13;;;;;;;2.15;1.20;;;;;;;;;;5035979;28;20087;-87
2023/12/08 01:21:40;;;;;;;2.35;1.30;;;;;;;;;;5042765;28;20037;-86
2023/12/08 01:24:06;;;;;;;2.00;1.20;;;;;;;;;;5038254;28;20038;-86
2023/12/08 01:26:31;;;;;;;1.80;1.10;;;;;;;;;;5048677;28;20024;-88
2023/12/08 01:28:57;;;;;;;2.33;1.30;;;;;;;;;;5041859;28;20039;-88
2023/12/08 01:31:22;;;;;;;2.53;1.17;;;;;;;;;;5034724;28;20479;-88
2023/12/08 01:33:48;;;;;;;2.42;1.20;;;;;;;;;;5039188;28;20603;-88
2023/12/08 01:36:14;;;;;;;1.63;1.02;;;;;;;;;;5041147;28;20079;-87
2023/12/08 01:38:46;;;;;;;3.85;1.20;;;;;;;;;;5043480;28;20047;-87
2023/12/08 01:41:15;;;;;;;1.90;1.20;;;;;;;;;;5039611;28;20500;-87
2023/12/08 01:43:46;;;;;;;2.05;1.10;;;;;;;;;;5044030;28;20047;-87
2023/12/08 01:46:19;;;;;;;4.47;1.23;;;;;;;;;;5043245;28;20037;-87
2023/12/08 01:48:45;;;;;;;2.38;1.10;;;;;;;;;;5040975;28;20034;-87
2023/12/08 01:51:12;;;;;;;2.67;1.25;;;;;;;;;;5037258;28;20034;-87
2023/12/08 01:53:38;;;;;;;1.80;1.13;;;;;;;;;;5039786;28;20037;-88
2023/12/08 01:56:06;;;;;;;2.00;1.20;;;;;;;;;;5039808;28;20403;-89
2023/12/08 01:58:31;;;;;;;1.90;1.00;;;;;;;;;;5044093;28;20045;-88
2023/12/08 02:00:58;;;;;;;1.75;1.20;;;;;;;;;;5036670;28;20411;-87
2023/12/08 02:03:25;;;;;;;2.13;1.10;;;;;;;;;;5039388;28;20020;-87
2023/12/08 02:05:50;;;;;;;2.30;1.10;;;;;;;;;;5044948;28;20041;-87
2023/12/08 02:08:20;;;;;;;1.92;1.17;;;;;;;;;;5045212;28;20025;-87
2023/12/08 02:10:47;;;;;;;2.88;1.10;;;;;;;;;;5041085;28;20124;-87
2023/12/08 02:13:16;;;;;;;2.10;1.00;;;;;;;;;;5037695;28;20033;-87
2023/12/08 02:15:45;;;;;;;1.77;1.10;;;;;;;;;;5045834;28;20093;-87
2023/12/08 02:18:13;;;;;;;1.83;0.82;;;;;;;;;;5039221;28;20037;-87
2023/12/08 02:20:39;;;;;;;1.83;1.08;;;;;;;;;;5045466;28;20037;-87
2023/12/08 02:23:06;;;;;;;1.83;1.10;;;;;;;;;;5037826;28;20029;-86
2023/12/08 02:25:32;;;;;;;1.30;1.00;;;;;;;;;;5042987;28;20049;-88
2023/12/08 02:27:57;;;;;;;2.28;1.10;;;;;;;;;;5043139;28;20024;-87
2023/12/08 02:30:23;;;;;;;2.08;1.20;;;;;;;;;;5040518;28;20037;-87
2023/12/08 02:33:17;;;;;;;1.83;0.95;;;;;;;;;;5030908;28;20029;-88
2023/12/08 02:35:45;;;;;;;2.00;1.00;;;;;;;;;;5042289;28;20828;-87
2023/12/08 02:38:15;;;;;;;1.75;1.13;;;;;;;;;;5041613;28;20094;-86
2023/12/08 02:40:41;;;;;;;1.48;0.90;;;;;;;;;;5041104;28;20068;-87
2023/12/08 02:43:06;;;;;;;1.70;0.90;;;;;;;;;;5039152;28;20053;-87
2023/12/08 02:45:32;;;;;;;1.85;0.90;;;;;;;;;;5037869;28;20475;-87
2023/12/08 02:47:57;;;;;;;2.40;1.00;;;;;;;;;;5045392;28;20024;-87
2023/12/08 02:50:23;;;;;;;2.10;1.10;;;;;;;;;;5047015;28;20033;-87
2023/12/08 02:52:48;;;;;;;2.50;1.00;;;;;;;;;;5033238;28;20028;-87
2023/12/08 02:55:14;;;;;;;2.00;1.17;;;;;;;;;;5039481;28;20065;-87
2023/12/08 02:57:39;;;;;;;2.15;1.30;;;;;;;;;;5043577;28;20041;-87
2023/12/08 03:00:05;;;;;;;1.35;1.13;;;;;;;;;;5037891;28;20650;-85
2023/12/08 03:02:31;;;;;;;2.67;1.42;;;;;;;;;;5041975;28;20065;-87
2023/12/08 03:04:56;;;;;;;1.30;0.95;;;;;;;;;;5036600;28;20025;-87
2023/12/08 03:07:21;;;;;;;1.48;0.90;;;;;;;;;;5043504;28;20033;-87
2023/12/08 03:09:48;;;;;;;1.50;1.00;;;;;;;;;;5043402;28;20065;-85
2023/12/08 03:12:14;;;;;;;2.78;1.20;;;;;;;;;;5028941;28;20050;-88
2023/12/08 03:14:39;;;;;;;1.45;0.90;;;;;;;;;;5037445;28;20108;-87
2023/12/08 03:17:05;;;;;;;1.40;0.77;;;;;;;;;;5037519;28;20037;-86
2023/12/08 03:19:30;;;;;;;1.58;0.95;;;;;;;;;;5040260;28;20045;-87
2023/12/08 03:21:57;;;;;;;2.47;1.00;;;;;;;;;;5045084;28;20112;-87
2023/12/08 03:24:22;;;;;;;1.85;0.90;;;;;;;;;;5042206;28;20044;-88
2023/12/08 03:26:47;;;;;;;1.90;1.00;;;;;;;;;;5038248;28;20038;-88
2023/12/08 03:29:16;;;;;;;1.17;0.85;;;;;;;;;;5036386;28;20531;-87
2023/12/08 03:31:41;;;;;;;2.83;1.00;;;;;;;;;;5045421;28;20546;-87
2023/12/08 03:34:07;;;;;;;1.60;1.00;;;;;;;;;;5043079;28;20030;-86
2023/12/08 03:36:32;;;;;;;1.40;1.00;;;;;;;;;;5038472;28;20405;-87
2023/12/08 03:38:58;;;;;;;2.25;1.00;;;;;;;;;;5038301;28;20082;-88
2023/12/08 03:41:23;;;;;;;3.25;1.15;;;;;;;;;;5036937;28;20128;-88
2023/12/08 03:43:49;;;;;;;2.47;1.10;;;;;;;;;;5043140;28;20041;-88
2023/12/08 03:46:15;;;;;;;2.05;0.90;;;;;;;;;;5038419;28;20038;-87
2023/12/08 03:48:40;;;;;;;1.73;0.90;;;;;;;;;;5042432;28;20275;-87
2023/12/08 03:51:06;;;;;;;1.63;1.00;;;;;;;;;;5038015;28;20030;-87
2023/12/08 03:53:32;;;;;;;1.40;1.05;;;;;;;;;;5044340;28;20479;-87
2023/12/08 03:55:57;;;;;;;1.50;0.90;;;;;;;;;;5036612;28;20475;-88
2023/12/08 03:58:22;;;;;;;3.10;0.80;;;;;;;;;;5040174;28;20021;-87
2023/12/08 04:00:48;;;;;;;2.30;0.93;;;;;;;;;;5040841;28;20523;-86
2023/12/08 04:03:15;;;;;;;1.20;0.80;;;;;;;;;;5042822;28;20046;-86
2023/12/08 04:05:40;;;;;;;1.00;0.88;;;;;;;;;;5037620;28;20040;-87
2023/12/08 04:08:06;;;;;;;2.20;0.85;;;;;;;;;;5041017;28;20034;-87
2023/12/08 04:10:32;;;;;;;1.52;0.80;;;;;;;;;;5039705;28;20030;-87
2023/12/08 04:12:57;;;;;;;1.52;1.00;;;;;;;;;;5041855;28;20029;-87
2023/12/08 04:15:23;;;;;;;1.50;0.90;;;;;;;;;;5025038;28;20099;-88
2023/12/08 04:17:49;;;;;;;1.90;0.90;;;;;;;;;;5034896;28;20033;-87
2023/12/08 04:20:17;;;;;;;1.60;1.00;;;;;;;;;;5040063;28;20142;-86
2023/12/08 04:22:43;;;;;;;1.52;0.98;;;;;;;;;;5038184;28;20091;-87
2023/12/08 04:25:08;;;;;;;1.48;1.02;;;;;;;;;;5039412;28;20034;-87
2023/12/08 04:27:34;;;;;;;2.35;1.00;;;;;;;;;;5038483;28;20044;-87
2023/12/08 04:29:59;;;;;;;2.97;1.00;;;;;;;;;;5041728;28;20461;-88
2023/12/08 04:32:25;;;;;;;1.13;0.90;;;;;;;;;;5043236;28;20029;-88
2023/12/08 04:34:50;;;;;;;1.52;1.00;;;;;;;;;;5043007;28;20129;-87
2023/12/08 04:37:15;;;;;;;1.90;1.00;;;;;;;;;;5040340;28;20033;-87
2023/12/08 04:39:41;;;;;;;1.52;0.90;;;;;;;;;;5036630;28;20056;-87
2023/12/08 04:42:07;;;;;;;2.15;0.98;;;;;;;;;;5037595;28;20038;-87
2023/12/08 04:44:33;;;;;;;1.77;0.80;;;;;;;;;;5042644;28;20041;-87
2023/12/08 04:46:59;;;;;;;1.23;0.80;;;;;;;;;;5037280;28;20411;-87
2023/12/08 04:49:25;;;;;;;1.00;0.80;;;;;;;;;;5043710;28;20041;-87
2023/12/08 04:51:50;;;;;;;1.55;1.00;;;;;;;;;;5045066;28;20033;-88
2023/12/08 04:54:16;;;;;;;1.48;0.90;;;;;;;;;;5043706;28;20025;-87
2023/12/08 04:56:41;;;;;;;1.40;0.90;;;;;;;;;;5049304;28;20038;-87
2023/12/08 04:59:08;;;;;;;2.22;0.90;;;;;;;;;;5038026;28;20048;-87
2023/12/08 05:01:35;;;;;;;1.38;1.00;;;;;;;;;;5045574;28;20037;-87
2023/12/08 05:04:02;;;;;;;1.90;1.05;;;;;;;;;;5043788;28;20036;-86
2023/12/08 05:06:28;;;;;;;1.63;1.10;;;;;;;;;;5076798;28;20037;-85
2023/12/08 05:08:54;;;;;;;1.67;1.13;;;;;;;;;;5041807;28;20063;-88
2023/12/08 05:11:19;;;;;;;1.60;1.10;;;;;;;;;;5048768;28;20029;-88
2023/12/08 05:13:45;;;;;;;2.08;1.08;;;;;;;;;;5045407;28;20514;-87
2023/12/08 05:16:14;;;;;;;2.13;1.20;;;;;;;;;;5042386;28;20463;-86
2023/12/08 05:18:40;;;;;;;3.40;1.20;;;;;;;;;;5042120;28;20426;-87
2023/12/08 05:21:06;;;;;;;1.73;1.02;;;;;;;;;;5036784;28;20040;-86
2023/12/08 05:23:31;;;;;;;1.30;0.90;;;;;;;;;;5044749;28;20045;-86
2023/12/08 05:25:57;;;;;;;1.38;0.88;;;;;;;;;;5042728;28;20033;-87
2023/12/08 05:28:23;;;;;;;3.65;1.08;;;;;;;;;;5045029;28;20556;-88
2023/12/08 05:30:48;;;;;;;1.13;0.82;;;;;;;;;;5041051;28;20121;-88
2023/12/08 05:33:14;;;;;;;3.92;1.38;;;;;;;;;;5040704;28;20033;-88
2023/12/08 05:35:39;;;;;;;3.08;1.05;;;;;;;;;;5045732;28;20048;-88
2023/12/08 05:38:05;;;;;;;3.47;1.00;;;;;;;;;;5044416;28;20057;-87
2023/12/08 05:40:30;;;;;;;1.77;0.93;;;;;;;;;;5039771;28;20422;-87
2023/12/08 05:42:56;;;;;;;1.55;1.02;;;;;;;;;;5043422;28;20033;-88
2023/12/08 05:45:21;;;;;;;1.67;1.05;;;;;;;;;;5042392;28;20041;-88
2023/12/08 05:47:47;;;;;;;2.75;1.20;;;;;;;;;;5045013;28;20044;-88
2023/12/08 05:50:12;;;;;;;1.92;1.10;;;;;;;;;;5045574;28;20083;-87
2023/12/08 05:52:38;;;;;;;2.35;1.20;;;;;;;;;;5042659;28;20097;-87
2023/12/08 05:55:03;;;;;;;1.70;0.80;;;;;;;;;;5039374;28;20036;-88
2023/12/08 05:57:29;;;;;;;2.70;1.02;;;;;;;;;;5042536;28;20033;-87
2023/12/08 05:59:54;;;;;;;3.55;1.27;;;;;;;;;;5043905;28;20045;-88
2023/12/08 06:02:21;;;;;;;1.48;0.90;;;;;;;;;;5040804;28;20056;-88
2023/12/08 06:04:46;;;;;;;1.90;0.85;;;;;;;;;;5040547;28;20033;-88
2023/12/08 06:07:12;;;;;;;1.77;0.82;;;;;;;;;;5040470;28;20036;-87
2023/12/08 06:09:37;;;;;;;1.73;1.00;;;;;;;;;;5044184;28;20089;-88
2023/12/08 06:12:03;;;;;;;2.83;1.10;;;;;;;;;;5043246;28;20413;-87
2023/12/08 06:14:29;;;;;;;1.90;0.95;;;;;;;;;;5044787;28;20030;-87
2023/12/08 06:16:54;;;;;;;1.00;0.70;;;;;;;;;;5035907;28;20495;-87
2023/12/08 06:19:19;;;;;;;1.80;1.02;;;;;;;;;;5048724;28;20036;-88
2023/12/08 06:21:45;;;;;;;2.28;0.93;;;;;;;;;;5040897;28;20037;-87
2023/12/08 06:24:10;;;;;;;1.95;0.82;;;;;;;;;;5029735;28;20057;-86
2023/12/08 06:26:39;;;;;;;1.52;1.05;;;;;;;;;;5038323;28;20029;-86
2023/12/08 06:29:04;;;;;;;1.00;0.90;;;;;;;;;;5041978;28;20052;-84
2023/12/08 06:31:31;;;;;;;1.45;0.90;;;;;;;;;;5041244;28;20041;-85
2023/12/08 06:33:56;;;;;;;2.25;1.10;;;;;;;;;;5043551;28;20487;-86
2023/12/08 06:36:22;;;;;;;2.35;1.10;;;;;;;;;;5043653;28;20032;-88
2023/12/08 06:38:48;;;;;;;1.45;0.95;;;;;;;;;;5043159;28;20083;-89
2023/12/08 06:41:13;;;;;;;1.65;1.00;;;;;;;;;;5044556;28;20044;-90
2023/12/08 06:43:38;;;;;;;1.65;1.00;;;;;;;;;;5043520;28;20025;-89
2023/12/08 06:46:04;;;;;;;4.53;1.20;;;;;;;;;;5038662;28;20471;-87
2023/12/08 06:48:30;;;;;;;1.67;1.15;;;;;;;;;;5043374;28;20086;-87
2023/12/08 06:50:55;;;;;;;4.63;1.52;;;;;;;;;;5041119;28;20037;-89
2023/12/08 06:53:20;;;;;;;4.63;1.15;;;;;;;;;;5042331;28;20040;-90
2023/12/08 06:55:46;;;;;;;1.60;1.00;;;;;;;;;;5041663;28;20021;-89
2023/12/08 06:58:11;;;;;;;2.83;1.10;;;;;;;;;;5040311;28;20037;-90
2023/12/08 07:00:37;;;;;;;2.30;1.17;;;;;;;;;;5043693;28;20040;-87
2023/12/08 07:03:03;;;;;;;3.33;2.00;;;;;;;;;;5039163;28;20034;-89
2023/12/08 07:05:29;;;;;;;7.75;3.75;;;;;;;;;;5023455;28;20092;-87
2023/12/08 07:07:56;;;;;;;5.15;2.92;;;;;;;;;;5040317;28;20033;-88
2023/12/08 07:10:21;;;;;;;4.90;2.55;;;;;;;;;;5041170;28;20055;-87
2023/12/08 07:12:47;;;;;;;4.63;2.42;;;;;;;;;;5039550;28;20565;-87
2023/12/08 07:15:12;;;;;;;3.70;2.33;;;;;;;;;;5037978;28;20043;-87
2023/12/08 07:17:38;;;;;;;6.00;3.20;;;;;;;;;;5041338;28;20045;-87
2023/12/08 07:20:09;;;;;;;13.75;7.38;;;;;;;;;;5038946;28;20032;-87
2023/12/08 07:22:35;;;;;;;7.15;3.40;;;;;;;;;;5041991;28;20503;-87
2023/12/08 07:25:05;;;;;;;5.43;2.72;;;;;;;;;;5026990;28;20033;-88
2023/12/08 07:27:31;;;;;;;4.75;2.60;;;;;;;;;;5039470;28;20044;-89
2023/12/08 07:29:57;;;;;;;10.05;5.15;;;;;;;;;;5040318;28;20052;-87
2023/12/08 07:32:24;;;;;;;4.90;2.55;;;;;;;;;;5040499;28;20479;-86
2023/12/08 07:34:50;;;;;;;17.75;9.43;;;;;;;;;;5041991;28;20034;-87
2023/12/08 07:37:16;;;;;;;7.88;4.03;;;;;;;;;;5033816;28;20370;-89
2023/12/08 07:39:41;;;;;;;3.75;2.33;;;;;;;;;;5045463;28;20037;-88
2023/12/08 07:42:06;;;;;;;4.38;1.90;;;;;;;;;;5036849;28;20037;-87
2023/12/08 07:44:34;;;;;;;4.63;2.15;;;;;;;;;;5042855;28;20037;-88
2023/12/08 07:47:00;;;;;;;4.22;2.30;;;;;;;;;;5031650;28;20057;-87
2023/12/08 07:49:26;;;;;;;3.80;2.17;;;;;;;;;;5038108;28;20033;-88
2023/12/08 07:51:51;;;;;;;10.02;4.55;;;;;;;;;;5041287;28;20568;-87
2023/12/08 07:54:17;;;;;;;6.57;3.53;;;;;;;;;;5030803;28;20450;-87
2023/12/08 07:56:42;;;;;;;5.55;3.10;;;;;;;;;;5035246;28;20033;-88
2023/12/08 07:59:08;;;;;;;4.03;2.60;;;;;;;;;;5036066;28;20038;-88
2023/12/08 08:01:35;;;;;;;7.25;3.58;;;;;;;;;;5030803;28;20034;-85
2023/12/08 08:04:03;;;;;;;6.55;3.83;;;;;;;;;;5038377;28;20033;-85
2023/12/08 08:06:29;;;;;;;7.80;3.63;;;;;;;;;;5040219;28;20036;-87
2023/12/08 08:08:54;;;;;;;7.28;3.47;;;;;;;;;;5034276;28;20041;-88
2023/12/08 08:11:20;;;;;;;6.10;3.60;;;;;;;;;;5039705;28;20024;-88
2023/12/08 08:13:45;;;;;;;11.27;4.47;;;;;;;;;;5039492;28;20526;-89
2023/12/08 08:16:11;;;;;;;12.32;4.75;;;;;;;;;;5034220;28;20030;-86
2023/12/08 08:18:36;;;;;;;13.20;4.13;;;;;;;;;;5037007;28;20052;-85
2023/12/08 08:21:02;;;;;;;7.40;3.63;;;;;;;;;;5035291;28;20092;-87
2023/12/08 08:23:27;;;;;;;4.50;2.08;;;;;;;;;;5039118;28;20022;-87
2023/12/08 08:25:53;;;;;;;1.88;1.30;;;;;;;;;;5036400;28;20032;-87
2023/12/08 08:28:19;;;;;;;3.00;1.40;;;;;;;;;;5037783;28;20086;-87
2023/12/08 08:30:44;;;;;;;2.65;1.20;;;;;;;;;;5039980;28;20045;-90
2023/12/08 08:33:10;;;;;;;2.45;1.23;;;;;;;;;;5042674;28;20500;-87
2023/12/08 08:35:35;;;;;;;2.80;1.50;;;;;;;;;;5042938;28;20132;-87
2023/12/08 08:38:01;;;;;;;2.65;1.50;;;;;;;;;;5029330;28;20079;-88
2023/12/08 08:40:26;;;;;;;4.47;1.80;;;;;;;;;;5041730;28;20483;-88
2023/12/08 08:42:52;;;;;;;4.28;1.90;;;;;;;;;;5039692;28;20095;-87
2023/12/08 08:45:19;;;;;;;3.00;1.70;;;;;;;;;;5061396;28;20088;-87
2023/12/08 08:47:45;;;;;;;3.35;2.03;;;;;;;;;;5046858;28;20123;-88
2023/12/08 08:50:10;;;;;;;9.27;2.20;;;;;;;;;;5022725;28;20316;-88
2023/12/08 08:52:36;;;;;;;9.88;2.20;;;;;;;;;;5043539;28;20127;-87
2023/12/08 08:55:02;;;;;;;3.90;2.17;;;;;;;;;;5040658;28;20049;-88
2023/12/08 08:57:28;;;;;;;8.70;1.60;;;;;;;;;;5050352;28;20051;-88
2023/12/08 08:59:54;;;;;;;2.85;1.38;;;;;;;;;;5038284;28;20037;-89
2023/12/08 09:02:19;;;;;;;4.75;1.52;;;;;;;;;;5036599;28;20381;-89
2023/12/08 09:04:44;;;;;;;2.47;1.50;;;;;;;;;;5045226;28;20036;-89
2023/12/08 09:07:10;;;;;;;7.80;2.83;;;;;;;;;;5042879;28;20037;-89
2023/12/08 09:09:35;;;;;;;4.35;2.10;;;;;;;;;;5041218;28;20044;-89
2023/12/08 09:12:01;;;;;;;3.55;1.75;;;;;;;;;;5038838;28;20022;-88
2023/12/08 09:14:27;;;;;;;3.13;1.83;;;;;;;;;;5038975;28;20383;-88
2023/12/08 09:16:53;;;;;;;8.98;2.10;;;;;;;;;;5042867;28;20411;-86
2023/12/08 09:19:19;;;;;;;3.88;1.75;;;;;;;;;;5041247;28;20491;-89
2023/12/08 09:21:45;;;;;;;3.08;1.50;;;;;;;;;;5044447;28;20037;-87
2023/12/08 09:24:10;;;;;;;6.45;1.67;;;;;;;;;;5035940;28;20096;-89
2023/12/08 09:26:36;;;;;;;3.90;1.80;;;;;;;;;;5045384;28;20037;-89
2023/12/08 09:29:02;;;;;;;2.30;1.30;;;;;;;;;;5040521;28;20025;-92
2023/12/08 09:31:28;;;;;;;4.45;1.60;;;;;;;;;;5034037;28;20042;-91
2023/12/08 09:33:54;;;;;;;3.17;1.10;;;;;;;;;;5039118;28;20047;-91
2023/12/08 09:36:19;;;;;;;3.78;1.60;;;;;;;;;;5042475;28;20483;-91
2023/12/08 09:38:45;;;;;;;2.90;1.52;;;;;;;;;;5032902;28;20036;-91
2023/12/08 09:41:13;;;;;;;5.60;1.63;;;;;;;;;;5007179;28;20167;-93
2023/12/08 09:43:49;;;;;;;3.05;1.70;;;;;;;;;;5042081;28;20041;-92
2023/12/08 09:46:15;;;;;;;3.58;1.80;;;;;;;;;;5039612;28;20036;-93
2023/12/08 09:48:44;;;;;;;4.15;1.63;;;;;;;;;;5025893;28;20025;-92
2023/12/08 09:51:12;;;;;;;2.17;1.40;;;;;;;;;;5036818;28;20033;-93
2023/12/08 09:53:39;;;;;;;2.63;1.50;;;;;;;;;;5037762;28;20438;-91
2023/12/08 09:56:05;;;;;;;3.17;1.50;;;;;;;;;;5041457;28;20121;-93
2023/12/08 09:58:31;;;;;;;2.40;1.50;;;;;;;;;;5022265;28;20100;-90
2023/12/08 10:00:59;;;;;;;3.92;1.52;;;;;;;;;;5033692;28;20091;-91
2023/12/08 10:03:25;;;;;;;3.13;1.60;;;;;;;;;;5034254;28;20009;-92
2023/12/08 10:05:53;;;;;;;4.55;1.77;;;;;;;;;;5037840;28;20056;-90
2023/12/08 10:08:20;;;;;;;3.70;1.70;;;;;;;;;;5038569;28;20108;-91
2023/12/08 10:10:46;;;;;;;3.63;1.70;;;;;;;;;;5039323;28;20040;-89
2023/12/08 10:13:12;;;;;;;2.22;1.55;;;;;;;;;;5034257;28;20171;-90
2023/12/08 10:15:42;;;;;;;3.40;1.58;;;;;;;;;;5041561;28;20091;-91
2023/12/08 10:18:08;;;;;;;2.53;1.42;;;;;;;;;;5035114;28;20037;-91
2023/12/08 10:20:33;;;;;;;5.03;2.10;;;;;;;;;;5038497;28;20108;-90
2023/12/08 10:22:59;;;;;;;7.15;2.00;;;;;;;;;;5029175;28;20052;-91
2023/12/08 10:25:26;;;;;;;6.32;1.55;;;;;;;;;;5037016;28;20086;-91
2023/12/08 10:27:56;;;;;;;4.60;1.85;;;;;;;;;;5039903;28;20503;-91
2023/12/08 10:30:25;;;;;;;5.55;2.63;;;;;;;;;;5037548;28;20045;-91
2023/12/08 10:32:50;;;;;;;9.05;2.50;;;;;;;;;;5034546;28;20094;-91
2023/12/08 10:35:16;;;;;;;3.70;2.22;;;;;;;;;;5033542;28;20041;-91
2023/12/08 10:37:43;;;;;;;4.80;2.47;;;;;;;;;;5034186;28;20045;-91
2023/12/08 10:40:13;;;;;;;4.57;2.30;;;;;;;;;;5027579;28;20021;-91
2023/12/08 10:42:38;;;;;;;4.47;2.45;;;;;;;;;;5039953;28;20037;-91
2023/12/08 10:45:11;;;;;;;4.82;2.53;;;;;;;;;;5035977;28;20056;-91
2023/12/08 10:47:42;;;;;;;3.83;1.83;;;;;;;;;;5031359;28;20033;-91
2023/12/08 10:50:09;;;;;;;2.53;1.42;;;;;;;;;;5040592;28;20041;-90
2023/12/08 10:52:37;;;;;;;4.72;1.50;;;;;;;;;;5042017;28;20033;-92
2023/12/08 10:55:07;;;;;;;2.97;1.70;;;;;;;;;;5033073;28;20505;-91
2023/12/08 10:57:34;;;;;;;3.42;1.50;;;;;;;;;;5042115;28;20037;-92
2023/12/08 11:00:19;;;;;;;2.88;1.65;;;;;;;;;;5040843;28;20462;-87
2023/12/08 11:02:49;;;;;;;4.72;1.92;;;;;;;;;;5033885;28;20034;-86
2023/12/08 11:05:37;;;;;;;2.47;1.40;;;;;;;;;;5033881;28;20026;-86
2023/12/08 11:08:06;;;;;;;7.97;1.80;;;;;;;;;;5037138;28;20499;-86
2023/12/08 11:10:36;;;;;;;3.58;1.85;;;;;;;;;;5039729;28;20041;-86
2023/12/08 11:13:26;;;;;;;2.22;1.20;;;;;;;;;;5037548;28;20029;-87
2023/12/08 11:16:17;;;;;;;3.95;1.40;;;;;;;;;;5039462;28;20034;-88
2023/12/08 11:18:44;;;;;;;14.73;2.80;;;;;;;;;;5035701;28;20037;-87
2023/12/08 11:21:11;;;;;;;7.35;1.77;;;;;;;;;;5029474;28;20475;-88
2023/12/08 11:23:39;;;;;;;6.18;1.60;;;;;;;;;;5031840;28;20060;-88
2023/12/08 11:26:30;;;;;;;3.17;1.83;;;;;;;;;;5037134;28;20040;-88
2023/12/08 11:29:02;;;;;;;3.33;1.70;;;;;;;;;;5035343;28;20033;-88
2023/12/08 11:31:40;;;;;;;3.92;1.80;;;;;;;;;;5040068;28;20045;-88
2023/12/08 11:34:21;;;;;;;3.08;1.67;;;;;;;;;;5038808;28;20060;-88
2023/12/08 11:36:46;;;;;;;5.65;2.35;;;;;;;;;;5038764;28;20033;-88
2023/12/08 11:39:35;;;;;;;3.63;1.90;;;;;;;;;;5039039;28;20030;-89
2023/12/08 11:42:11;;;;;;;4.90;2.00;;;;;;;;;;5031185;28;20068;-89
2023/12/08 11:44:39;;;;;;;5.55;2.10;;;;;;;;;;5030150;28;20499;-88
2023/12/08 11:47:08;;;;;;;4.97;2.33;;;;;;;;;;5030725;28;20037;-88
2023/12/08 11:49:38;;;;;;;3.05;1.58;;;;;;;;;;5036023;28;20414;-86
2023/12/08 11:52:35;;;;;;;3.67;1.80;;;;;;;;;;5033087;28;20483;-87
2023/12/08 11:55:22;;;;;;;2.75;1.58;;;;;;;;;;5034226;28;20072;-87
2023/12/08 11:58:03;;;;;;;2.90;1.90;;;;;;;;;;5039322;28;20029;-86
2023/12/08 12:00:31;;;;;;;5.20;2.50;;;;;;;;;;5035281;28;20032;-85
2023/12/08 12:02:58;;;;;;;5.10;2.97;;;;;;;;;;5034514;28;20022;-88
2023/12/08 12:05:24;;;;;;;5.07;2.72;;;;;;;;;;5034665;28;20437;-89
2023/12/08 12:07:51;;;;;;;3.72;1.92;;;;;;;;;;5042897;28;20051;-90
2023/12/08 12:10:18;;;;;;;3.53;2.05;;;;;;;;;;5028554;28;20048;-91
2023/12/08 12:13:06;;;;;;;2.95;1.80;;;;;;;;;;5037790;28;20029;-89
2023/12/08 12:15:33;;;;;;;4.63;1.70;;;;;;;;;;5056377;28;20049;-90
2023/12/08 12:18:01;;;;;;;7.88;3.10;;;;;;;;;;5040972;28;20083;-89
2023/12/08 12:20:38;;;;;;;9.23;2.30;;;;;;;;;;5041406;28;20047;-89
2023/12/08 12:23:04;;;;;;;6.70;2.20;;;;;;;;;;5032579;28;20037;-89
2023/12/08 12:25:29;;;;;;;8.70;2.67;;;;;;;;;;5038006;28;20527;-89
2023/12/08 12:27:55;;;;;;;3.20;1.80;;;;;;;;;;5040039;28;20099;-89
2023/12/08 12:30:22;;;;;;;6.97;3.10;;;;;;;;;;5040839;28;20023;-90
2023/12/08 12:32:48;;;;;;;8.43;2.90;;;;;;;;;;5040014;28;20033;-87
2023/12/08 12:35:14;;;;;;;6.45;2.80;;;;;;;;;;5045699;28;20080;-88
2023/12/08 12:37:40;;;;;;;8.70;3.28;;;;;;;;;;5031491;28;20034;-88
2023/12/08 12:40:10;;;;;;;7.72;3.30;;;;;;;;;;5038899;28;20075;-90
2023/12/08 12:42:40;;;;;;;7.07;3.30;;;;;;;;;;5041245;28;20045;-88
2023/12/08 12:45:07;;;;;;;8.35;5.07;;;;;;;;;;5018642;28;20033;-88
2023/12/08 12:47:32;;;;;;;9.32;3.60;;;;;;;;;;5037598;28;20025;-89
2023/12/08 12:50:05;;;;;;;10.05;6.00;;;;;;;;;;5032281;28;20364;-87
2023/12/08 12:52:34;;;;;;;9.20;4.90;;;;;;;;;;5037322;28;20026;-88
2023/12/08 12:55:01;;;;;;;10.63;4.80;;;;;;;;;;5033671;28;20029;-87
2023/12/08 12:57:48;;;;;;;8.27;4.90;;;;;;;;;;5038823;28;20479;-89
2023/12/08 13:00:15;;;;;;;12.00;4.60;;;;;;;;;;5036129;28;20040;-89
2023/12/08 13:02:44;;;;;;;6.63;3.70;;;;;;;;;;5040935;28;20041;-89
2023/12/08 13:05:10;;;;;;;6.30;2.92;;;;;;;;;;5022224;28;20042;-88
2023/12/08 13:07:37;;;;;;;5.07;2.70;;;;;;;;;;5038557;28;20025;-89
2023/12/08 13:10:06;;;;;;;7.20;3.10;;;;;;;;;;5035401;28;20045;-88
2023/12/08 13:12:33;;;;;;;4.53;2.42;;;;;;;;;;5041961;28;20038;-88
2023/12/08 13:14:59;;;;;;;6.40;3.40;;;;;;;;;;5041716;28;20045;-88
2023/12/08 13:17:25;;;;;;;4.90;2.60;;;;;;;;;;5039660;28;20099;-89
2023/12/08 13:19:51;;;;;;;5.00;2.42;;;;;;;;;;5047819;28;20029;-89
2023/12/08 13:22:17;;;;;;;10.50;3.20;;;;;;;;;;5046712;28;20044;-88
2023/12/08 13:24:47;;;;;;;6.30;3.03;;;;;;;;;;5048798;28;20116;-89
2023/12/08 13:27:16;;;;;;;7.15;3.67;;;;;;;;;;5037567;28;20080;-88
2023/12/08 13:29:41;;;;;;;11.93;4.57;;;;;;;;;;5040423;28;20138;-88
2023/12/08 13:32:07;;;;;;;13.63;5.47;;;;;;;;;;5034656;28;20029;-88
2023/12/08 13:34:32;;;;;;;10.45;4.50;;;;;;;;;;5049675;28;20045;-88
2023/12/08 13:36:58;;;;;;;11.45;4.20;;;;;;;;;;5042013;28;20034;-88
2023/12/08 13:39:23;;;;;;;6.40;2.83;;;;;;;;;;5045235;28;20037;-88
2023/12/08 13:41:49;;;;;;;5.22;3.17;;;;;;;;;;5040453;28;20561;-88
2023/12/08 13:44:15;;;;;;;6.50;3.13;;;;;;;;;;5041856;28;20407;-88
2023/12/08 13:46:41;;;;;;;4.65;2.50;;;;;;;;;;5040900;28;20045;-87
2023/12/08 13:49:07;;;;;;;6.13;2.97;;;;;;;;;;5038527;28;20087;-87
2023/12/08 13:51:33;;;;;;;6.38;3.53;;;;;;;;;;5037145;28;20136;-84
2023/12/08 13:53:59;;;;;;;9.00;4.03;;;;;;;;;;5036611;28;20059;-84
2023/12/08 13:56:24;;;;;;;10.50;4.63;;;;;;;;;;5043435;28;20034;-87
2023/12/08 13:58:50;;;;;;;5.38;3.00;;;;;;;;;;5038917;28;20190;-86
2023/12/08 14:01:15;;;;;;;5.88;2.75;;;;;;;;;;5018487;28;20037;-86
2023/12/08 14:03:41;;;;;;;5.63;2.83;;;;;;;;;;5043874;28;20036;-86
2023/12/08 14:06:06;;;;;;;5.38;2.78;;;;;;;;;;5041268;28;20029;-85
2023/12/08 14:08:33;;;;;;;4.25;2.50;;;;;;;;;;5037268;28;20037;-88
2023/12/08 14:10:59;;;;;;;3.60;2.40;;;;;;;;;;5037704;28;20116;-89
2023/12/08 14:13:25;;;;;;;3.72;2.03;;;;;;;;;;5034361;28;20030;-88
2023/12/08 14:15:50;;;;;;;5.00;2.50;;;;;;;;;;5041771;28;20042;-87
2023/12/08 14:18:15;;;;;;;15.07;6.85;;;;;;;;;;5041859;28;20083;-88
2023/12/08 14:20:41;;;;;;;13.20;6.70;;;;;;;;;;5041992;28;20443;-88
2023/12/08 14:23:07;;;;;;;16.63;7.50;;;;;;;;;;5041929;28;20037;-87
2023/12/08 14:25:33;;;;;;;67.07;24.48;;;;;;;;;;5048229;28;20135;-87
2023/12/08 14:27:58;;;;;;;24.55;10.25;;;;;;;;;;5044501;28;20084;-86
2023/12/08 14:30:24;;;;;;;18.40;7.93;;;;;;;;;;5036663;28;20061;-90
2023/12/08 14:32:49;;;;;;;18.73;8.23;;;;;;;;;;5038681;28;20061;-88
2023/12/08 14:35:15;;;;;;;17.00;7.35;;;;;;;;;;5038997;28;20041;-89
2023/12/08 14:37:40;;;;;;;13.13;6.22;;;;;;;;;;5042352;28;20120;-88
2023/12/08 14:40:07;;;;;;;12.38;6.10;;;;;;;;;;5014959;28;20065;-90
2023/12/08 14:42:33;;;;;;;9.88;5.35;;;;;;;;;;5035300;28;20423;-88